createdAt,value
2017-10-20T00:00:59.330Z,14.55
2017-10-20T00:01:59.754Z,14.54
2017-10-20T00:02:58.629Z,14.55
2017-10-20T00:03:58.873Z,14.55
2017-10-20T00:04:58.905Z,14.59
2017-10-20T00:05:58.864Z,14.59
2017-10-20T00:06:58.680Z,14.62
2017-10-20T00:07:58.975Z,14.60
2017-10-20T00:08:59.408Z,14.59
2017-10-20T00:10:00.138Z,14.55
2017-10-20T00:10:59.572Z,14.53
2017-10-20T00:11:59.691Z,14.54
2017-10-20T00:12:58.994Z,14.55
2017-10-20T00:13:59.228Z,14.53
2017-10-20T00:14:59.675Z,14.51
2017-10-20T00:15:59.003Z,14.51
2017-10-20T00:16:58.793Z,14.53
2017-10-20T00:17:58.524Z,14.50
2017-10-20T00:18:58.437Z,14.50
2017-10-20T00:19:59.831Z,14.51
2017-10-20T00:20:59.116Z,14.51
2017-10-20T00:21:59.551Z,14.53
2017-10-20T00:22:59.046Z,14.50
2017-10-20T00:23:59.412Z,14.50
2017-10-20T00:24:59.237Z,14.50
2017-10-20T00:25:59.193Z,14.51
2017-10-20T00:26:59.408Z,14.55
2017-10-20T00:27:58.407Z,14.54
2017-10-20T00:28:59.294Z,14.50
2017-10-20T00:29:59.375Z,14.50
2017-10-20T00:31:00.183Z,14.50
2017-10-20T00:31:58.890Z,14.50
2017-10-20T00:32:59.512Z,14.51
2017-10-20T00:33:59.968Z,14.47
2017-10-20T00:34:58.881Z,14.47
2017-10-20T00:35:58.659Z,14.45
2017-10-20T00:36:59.543Z,14.44
2017-10-20T00:37:59.701Z,14.44
2017-10-20T00:38:58.979Z,14.43
2017-10-20T00:39:58.806Z,14.45
2017-10-20T00:40:58.525Z,14.44
2017-10-20T00:41:58.850Z,14.47
2017-10-20T00:42:59.103Z,14.50
2017-10-20T00:43:58.979Z,14.51
2017-10-20T00:44:59.408Z,14.54
2017-10-20T00:45:59.447Z,14.59
2017-10-20T00:46:58.453Z,14.63
2017-10-20T00:47:59.895Z,14.66
2017-10-20T00:48:59.267Z,14.70
2017-10-20T00:49:59.070Z,14.77
2017-10-20T00:50:59.169Z,14.77
2017-10-20T00:51:59.125Z,14.78
2017-10-20T00:52:59.641Z,14.73
2017-10-20T00:53:58.647Z,14.69
2017-10-20T00:54:58.859Z,14.66
2017-10-20T00:55:58.613Z,14.68
2017-10-20T00:56:58.825Z,14.68
2017-10-20T00:57:58.484Z,14.69
2017-10-20T00:59:00.001Z,14.65
2017-10-20T00:59:58.402Z,14.63
2017-10-20T01:00:59.292Z,14.69
2017-10-20T01:01:59.642Z,14.73
2017-10-20T01:02:59.092Z,14.73
2017-10-20T01:04:00.053Z,14.72
2017-10-20T01:04:58.759Z,14.81
2017-10-20T01:05:58.983Z,14.81
2017-10-20T01:06:59.338Z,14.86
2017-10-20T01:07:58.586Z,15.00
2017-10-20T01:08:58.789Z,15.03
2017-10-20T01:09:59.580Z,15.10
2017-10-20T01:10:59.380Z,15.11
2017-10-20T01:11:58.827Z,15.14
2017-10-20T01:12:59.151Z,15.17
2017-10-20T01:13:58.819Z,15.18
2017-10-20T01:15:00.183Z,15.19
2017-10-20T01:15:59.659Z,15.19
2017-10-20T01:16:58.969Z,15.21
2017-10-20T01:17:58.991Z,15.19
2017-10-20T01:18:59.267Z,15.19
2017-10-20T01:19:59.620Z,15.22
2017-10-20T01:20:58.485Z,15.22
2017-10-20T01:21:58.336Z,15.25
2017-10-20T01:22:58.682Z,15.25
2017-10-20T01:23:58.516Z,15.27
2017-10-20T01:25:00.171Z,15.35
2017-10-20T01:25:58.898Z,15.39
2017-10-20T01:26:58.668Z,15.40
2017-10-20T01:27:58.854Z,15.40
2017-10-20T01:28:59.121Z,15.40
2017-10-20T01:29:59.077Z,15.42
2017-10-20T01:30:59.411Z,15.42
2017-10-20T01:31:59.245Z,15.40
2017-10-20T01:32:59.200Z,15.40
2017-10-20T01:33:59.086Z,15.39
2017-10-20T01:34:59.133Z,15.37
2017-10-20T01:35:59.046Z,15.37
2017-10-20T01:36:58.784Z,15.39
2017-10-20T01:37:58.511Z,15.43
2017-10-20T01:38:59.884Z,15.39
2017-10-20T01:39:58.732Z,15.40
2017-10-20T01:40:59.021Z,15.36
2017-10-20T01:41:58.756Z,15.37
2017-10-20T01:42:59.183Z,15.40
2017-10-20T01:43:59.189Z,15.39
2017-10-20T01:44:58.918Z,15.36
2017-10-20T01:45:59.290Z,15.29
2017-10-20T01:46:59.570Z,15.28
2017-10-20T01:47:59.616Z,15.24
2017-10-20T01:48:59.577Z,15.19
2017-10-20T01:49:58.291Z,15.15
2017-10-20T01:50:59.483Z,15.15
2017-10-20T01:51:58.373Z,15.15
2017-10-20T01:52:59.733Z,15.15
2017-10-20T01:53:58.541Z,15.15
2017-10-20T01:54:58.397Z,15.17
2017-10-20T01:55:58.437Z,15.17
2017-10-20T01:56:59.135Z,15.15
2017-10-20T01:57:58.925Z,15.18
2017-10-20T01:58:58.763Z,15.21
2017-10-20T01:59:58.628Z,15.21
2017-10-20T02:00:58.585Z,15.21
2017-10-20T02:01:59.213Z,15.21
2017-10-20T02:02:59.079Z,15.21
2017-10-20T02:03:59.074Z,15.18
2017-10-20T02:04:58.722Z,15.17
2017-10-20T02:05:58.837Z,15.17
2017-10-20T02:06:59.156Z,15.29
2017-10-20T02:07:59.864Z,15.44
2017-10-20T02:08:58.716Z,15.54
2017-10-20T02:09:59.334Z,15.57
2017-10-20T02:10:59.069Z,15.58
2017-10-20T02:11:58.886Z,15.62
2017-10-20T02:12:58.508Z,15.68
2017-10-20T02:13:59.794Z,15.76
2017-10-20T02:14:58.682Z,15.84
2017-10-20T02:15:59.165Z,15.94
2017-10-20T02:17:00.185Z,16.04
2017-10-20T02:17:59.404Z,16.10
2017-10-20T02:18:59.996Z,16.21
2017-10-20T02:19:59.191Z,16.38
2017-10-20T02:21:00.471Z,16.38
2017-10-20T02:21:58.322Z,16.41
2017-10-20T02:22:59.004Z,16.38
2017-10-20T02:23:59.293Z,16.33
2017-10-20T02:24:59.096Z,16.33
2017-10-20T02:25:58.911Z,16.32
2017-10-20T02:26:58.879Z,16.28
2017-10-20T02:27:58.838Z,16.23
2017-10-20T02:28:58.647Z,16.17
2017-10-20T02:29:59.106Z,16.13
2017-10-20T02:30:59.552Z,16.08
2017-10-20T02:31:58.776Z,16.02
2017-10-20T02:32:59.268Z,16.01
2017-10-20T02:33:59.891Z,16.04
2017-10-20T02:34:59.118Z,16.09
2017-10-20T02:35:59.196Z,16.04
2017-10-20T02:36:58.903Z,16.04
2017-10-20T02:37:58.878Z,16.05
2017-10-20T02:38:59.618Z,16.04
2017-10-20T02:39:59.004Z,16.05
2017-10-20T02:40:59.443Z,16.09
2017-10-20T02:41:59.643Z,16.04
2017-10-20T02:42:59.009Z,16.00
2017-10-20T02:43:58.729Z,15.98
2017-10-20T02:44:59.091Z,15.91
2017-10-20T02:45:58.737Z,15.83
2017-10-20T02:46:59.112Z,15.79
2017-10-20T02:47:59.557Z,15.75
2017-10-20T02:48:59.254Z,15.70
2017-10-20T02:49:59.136Z,15.65
2017-10-20T02:50:59.349Z,15.61
2017-10-20T02:51:59.432Z,15.61
2017-10-20T02:52:59.660Z,15.55
2017-10-20T02:53:59.184Z,15.52
2017-10-20T02:54:59.569Z,15.51
2017-10-20T02:55:58.412Z,15.49
2017-10-20T02:56:59.301Z,15.46
2017-10-20T02:57:58.985Z,15.44
2017-10-20T02:58:58.877Z,15.43
2017-10-20T02:59:58.538Z,15.40
2017-10-20T03:00:58.271Z,15.42
2017-10-20T03:01:58.275Z,15.42
2017-10-20T03:02:59.379Z,15.42
2017-10-20T03:03:59.386Z,15.40
2017-10-20T03:04:58.490Z,15.39
2017-10-20T03:05:58.761Z,15.35
2017-10-20T03:06:58.691Z,15.29
2017-10-20T03:07:59.252Z,15.25
2017-10-20T03:08:59.041Z,15.25
2017-10-20T03:09:59.024Z,15.25
2017-10-20T03:10:58.767Z,15.22
2017-10-20T03:11:58.592Z,15.21
2017-10-20T03:12:58.375Z,15.21
2017-10-20T03:13:58.933Z,15.21
2017-10-20T03:14:58.709Z,15.22
2017-10-20T03:15:58.637Z,15.24
2017-10-20T03:16:58.580Z,15.25
2017-10-20T03:17:59.061Z,15.25
2017-10-20T03:18:59.151Z,15.24
2017-10-20T03:19:59.919Z,15.21
2017-10-20T03:20:58.989Z,15.18
2017-10-20T03:21:59.234Z,15.15
2017-10-20T03:22:58.875Z,15.15
2017-10-20T03:23:59.372Z,15.14
2017-10-20T03:24:59.144Z,15.10
2017-10-20T03:25:58.388Z,15.09
2017-10-20T03:26:58.293Z,15.04
2017-10-20T03:27:59.186Z,15.02
2017-10-20T03:28:59.761Z,15.00
2017-10-20T03:29:58.618Z,14.97
2017-10-20T03:30:58.960Z,14.97
2017-10-20T03:31:58.936Z,14.96
2017-10-20T03:32:59.276Z,14.89
2017-10-20T03:33:58.189Z,14.91
2017-10-20T03:34:59.559Z,14.88
2017-10-20T03:35:59.404Z,14.85
2017-10-20T03:36:58.447Z,14.82
2017-10-20T03:37:58.183Z,14.82
2017-10-20T03:38:58.682Z,14.82
2017-10-20T03:39:59.145Z,14.82
2017-10-20T03:40:59.480Z,14.79
2017-10-20T03:41:58.873Z,14.77
2017-10-20T03:42:59.085Z,14.73
2017-10-20T03:44:00.129Z,14.69
2017-10-20T03:44:59.237Z,14.69
2017-10-20T03:45:59.143Z,14.69
2017-10-20T03:46:59.472Z,14.70
2017-10-20T03:47:58.235Z,14.72
2017-10-20T03:48:59.346Z,14.72
2017-10-20T03:49:59.084Z,14.72
2017-10-20T03:50:58.945Z,14.69
2017-10-20T03:51:59.146Z,14.70
2017-10-20T03:52:59.070Z,14.72
2017-10-20T03:53:58.924Z,14.70
2017-10-20T03:54:58.519Z,14.69
2017-10-20T03:55:58.758Z,14.68
2017-10-20T03:56:58.872Z,14.66
2017-10-20T03:57:59.346Z,14.66
2017-10-20T03:58:58.886Z,14.70
2017-10-20T03:59:58.970Z,14.69
2017-10-20T04:00:59.197Z,14.69
2017-10-20T04:01:59.554Z,14.70
2017-10-20T04:02:58.869Z,14.77
2017-10-20T04:03:59.306Z,14.78
2017-10-20T04:04:58.571Z,14.78
2017-10-20T04:05:58.347Z,14.81
2017-10-20T04:06:59.458Z,14.81
2017-10-20T04:07:58.418Z,14.81
2017-10-20T04:08:58.308Z,14.82
2017-10-20T04:09:58.702Z,14.82
2017-10-20T04:10:59.255Z,14.84
2017-10-20T04:11:59.071Z,14.86
2017-10-20T04:12:58.889Z,14.91
2017-10-20T04:13:59.038Z,14.96
2017-10-20T04:14:58.616Z,15.00
2017-10-20T04:15:59.391Z,15.03
2017-10-20T04:16:59.030Z,15.07
2017-10-20T04:17:59.513Z,15.09
2017-10-20T04:18:59.005Z,15.09
2017-10-20T04:19:58.722Z,15.10
2017-10-20T04:20:58.982Z,15.10
2017-10-20T04:21:58.852Z,15.15
2017-10-20T04:22:59.121Z,15.14
2017-10-20T04:23:59.000Z,15.11
2017-10-20T04:24:58.872Z,15.10
2017-10-20T04:25:59.197Z,15.10
2017-10-20T04:26:58.347Z,15.10
2017-10-20T04:27:58.692Z,15.10
2017-10-20T04:28:59.564Z,15.11
2017-10-20T04:29:58.741Z,15.09
2017-10-20T04:30:58.859Z,15.07
2017-10-20T04:31:58.654Z,15.06
2017-10-20T04:32:58.821Z,15.04
2017-10-20T04:33:59.429Z,15.03
2017-10-20T04:34:58.179Z,15.02
2017-10-20T04:35:58.731Z,15.03
2017-10-20T04:36:58.895Z,15.02
2017-10-20T04:37:58.914Z,15.04
2017-10-20T04:38:59.286Z,15.04
2017-10-20T04:39:58.180Z,15.03
2017-10-20T04:40:59.464Z,15.02
2017-10-20T04:41:58.709Z,14.99
2017-10-20T04:42:58.237Z,14.99
2017-10-20T04:43:59.069Z,14.97
2017-10-20T04:44:58.724Z,14.99
2017-10-20T04:45:58.827Z,14.99
2017-10-20T04:46:59.094Z,14.99
2017-10-20T04:47:59.363Z,14.96
2017-10-20T04:48:58.756Z,14.96
2017-10-20T04:49:59.448Z,14.92
2017-10-20T04:50:58.204Z,14.94
2017-10-20T04:51:58.134Z,14.96
2017-10-20T04:52:59.091Z,14.99
2017-10-20T04:53:59.270Z,14.99
2017-10-20T04:54:59.355Z,14.99
2017-10-20T04:55:59.132Z,14.97
2017-10-20T04:56:59.165Z,14.96
2017-10-20T04:57:59.073Z,14.91
2017-10-20T04:58:58.363Z,14.92
2017-10-20T04:59:58.510Z,14.91
2017-10-20T05:00:59.200Z,14.92
2017-10-20T05:01:59.400Z,14.97
2017-10-20T05:02:58.414Z,14.99
2017-10-20T05:03:58.197Z,15.00
2017-10-20T05:04:58.099Z,14.97
2017-10-20T05:05:59.753Z,14.99
2017-10-20T05:06:58.945Z,14.99
2017-10-20T05:07:58.757Z,15.00
2017-10-20T05:08:59.202Z,14.96
2017-10-20T05:09:59.321Z,14.92
2017-10-20T05:10:59.761Z,14.91
2017-10-20T05:11:59.016Z,14.94
2017-10-20T05:12:59.112Z,14.92
2017-10-20T05:13:58.771Z,14.89
2017-10-20T05:14:58.516Z,14.85
2017-10-20T05:15:58.842Z,14.84
2017-10-20T05:16:59.671Z,14.81
2017-10-20T05:17:58.284Z,14.79
2017-10-20T05:18:58.234Z,14.78
2017-10-20T05:19:58.711Z,14.78
2017-10-20T05:20:58.517Z,14.77
2017-10-20T05:21:58.470Z,14.72
2017-10-20T05:22:58.864Z,14.73
2017-10-20T05:23:58.625Z,14.79
2017-10-20T05:24:58.376Z,14.78
2017-10-20T05:25:58.306Z,14.81
2017-10-20T05:26:59.347Z,14.78
2017-10-20T05:27:58.730Z,14.73
2017-10-20T05:28:58.961Z,14.70
2017-10-20T05:29:58.878Z,14.68
2017-10-20T05:30:59.052Z,14.66
2017-10-20T05:31:58.441Z,14.65
2017-10-20T05:32:58.536Z,14.65
2017-10-20T05:33:58.955Z,14.66
2017-10-20T05:34:58.732Z,14.70
2017-10-20T05:35:58.735Z,14.73
2017-10-20T05:36:58.440Z,14.81
2017-10-20T05:37:58.884Z,14.85
2017-10-20T05:38:59.228Z,14.89
2017-10-20T05:39:59.085Z,14.89
2017-10-20T05:40:58.899Z,14.89
2017-10-20T05:41:58.263Z,14.92
2017-10-20T05:42:58.709Z,14.94
2017-10-20T05:43:59.193Z,14.99
2017-10-20T05:44:58.719Z,15.02
2017-10-20T05:45:58.573Z,15.02
2017-10-20T05:46:59.076Z,15.03
2017-10-20T05:47:59.388Z,15.06
2017-10-20T05:48:59.417Z,15.06
2017-10-20T05:49:58.506Z,15.15
2017-10-20T05:50:58.222Z,15.18
2017-10-20T05:51:58.143Z,15.18
2017-10-20T05:52:59.175Z,15.17
2017-10-20T05:53:59.904Z,15.21
2017-10-20T05:54:59.258Z,15.22
2017-10-20T05:55:59.077Z,15.29
2017-10-20T05:56:59.151Z,15.31
2017-10-20T05:57:58.701Z,15.35
2017-10-20T05:58:58.539Z,15.54
2017-10-20T05:59:59.473Z,15.68
2017-10-20T06:00:59.527Z,15.75
2017-10-20T06:01:58.256Z,15.82
2017-10-20T06:02:58.672Z,15.83
2017-10-20T06:03:59.254Z,15.80
2017-10-20T06:04:58.779Z,15.88
2017-10-20T06:05:59.171Z,15.95
2017-10-20T06:06:58.260Z,15.97
2017-10-20T06:07:59.521Z,15.92
2017-10-20T06:08:58.881Z,15.88
2017-10-20T06:09:58.888Z,15.90
2017-10-20T06:10:59.536Z,15.92
2017-10-20T06:11:58.766Z,16.00
2017-10-20T06:12:58.735Z,16.02
2017-10-20T06:13:58.975Z,16.02
2017-10-20T06:14:59.501Z,16.02
2017-10-20T06:15:58.887Z,16.12
2017-10-20T06:16:59.333Z,16.15
2017-10-20T06:17:58.490Z,16.15
2017-10-20T06:18:58.659Z,16.02
2017-10-20T06:19:59.008Z,15.91
2017-10-20T06:20:58.923Z,15.77
2017-10-20T06:21:59.307Z,15.58
2017-10-20T06:22:58.268Z,15.42
2017-10-20T06:23:59.059Z,15.19
2017-10-20T06:24:58.193Z,15.02
2017-10-20T06:25:58.616Z,14.81
2017-10-20T06:26:59.154Z,14.58
2017-10-20T06:27:59.622Z,14.43
2017-10-20T06:28:59.054Z,14.28
2017-10-20T06:29:59.625Z,14.18
2017-10-20T06:30:58.927Z,14.14
2017-10-20T06:31:59.337Z,14.11
2017-10-20T06:32:58.365Z,14.03
2017-10-20T06:33:58.603Z,13.93
2017-10-20T06:34:58.898Z,13.83
2017-10-20T06:35:59.494Z,13.78
2017-10-20T06:36:58.755Z,13.83
2017-10-20T06:37:59.035Z,13.92
2017-10-20T06:38:58.965Z,13.92
2017-10-20T06:39:59.123Z,13.89
2017-10-20T06:40:59.395Z,13.92
2017-10-20T06:41:58.744Z,13.90
2017-10-20T06:42:58.664Z,13.85
2017-10-20T06:43:59.513Z,13.81
2017-10-20T06:44:58.569Z,13.78
2017-10-20T06:45:58.746Z,13.75
2017-10-20T06:46:59.025Z,13.79
2017-10-20T06:47:59.566Z,13.74
2017-10-20T06:48:58.905Z,13.74
2017-10-20T06:49:59.565Z,13.78
2017-10-20T06:50:58.376Z,13.77
2017-10-20T06:51:58.898Z,13.75
2017-10-20T06:52:59.010Z,13.74
2017-10-20T06:53:59.184Z,13.81
2017-10-20T06:54:59.297Z,13.85
2017-10-20T06:55:59.083Z,13.83
2017-10-20T06:56:59.679Z,13.86
2017-10-20T06:57:58.471Z,13.93
2017-10-20T06:58:58.545Z,13.97
2017-10-20T06:59:58.510Z,13.95
2017-10-20T07:00:59.573Z,13.90
2017-10-20T07:01:59.209Z,13.90
2017-10-20T07:02:59.331Z,13.89
2017-10-20T07:03:58.983Z,13.86
2017-10-20T07:04:59.541Z,14.03
2017-10-20T07:05:58.633Z,14.08
2017-10-20T07:06:58.742Z,14.07
2017-10-20T07:07:59.265Z,14.03
2017-10-20T07:08:58.555Z,13.97
2017-10-20T07:09:58.930Z,13.92
2017-10-20T07:10:59.175Z,13.92
2017-10-20T07:11:59.488Z,13.92
2017-10-20T07:12:59.110Z,13.89
2017-10-20T07:13:59.244Z,13.83
2017-10-20T07:14:58.393Z,13.85
2017-10-20T07:15:58.577Z,13.85
2017-10-20T07:16:59.773Z,13.86
2017-10-20T07:17:59.246Z,13.89
2017-10-20T07:18:58.687Z,13.90
2017-10-20T07:19:59.334Z,14.00
2017-10-20T07:20:58.586Z,14.00
2017-10-20T07:21:59.074Z,13.97
2017-10-20T07:22:59.893Z,13.92
2017-10-20T07:23:59.422Z,13.87
2017-10-20T07:24:58.458Z,13.83
2017-10-20T07:25:58.893Z,13.78
2017-10-20T07:26:59.160Z,13.78
2017-10-20T07:27:59.834Z,13.78
2017-10-20T07:28:58.810Z,13.78
2017-10-20T07:29:58.918Z,13.79
2017-10-20T07:30:59.096Z,13.81
2017-10-20T07:31:59.446Z,13.79
2017-10-20T07:32:59.047Z,13.83
2017-10-20T07:34:00.005Z,13.81
2017-10-20T07:34:59.867Z,13.77
2017-10-20T07:35:59.765Z,13.75
2017-10-20T07:36:59.599Z,13.71
2017-10-20T07:37:59.079Z,13.67
2017-10-20T07:38:58.938Z,13.63
2017-10-20T07:39:58.981Z,13.62
2017-10-20T07:40:59.001Z,13.62
2017-10-20T07:41:58.669Z,13.57
2017-10-20T07:42:59.108Z,13.59
2017-10-20T07:43:59.140Z,13.62
2017-10-20T07:44:59.231Z,13.62
2017-10-20T07:45:59.261Z,13.59
2017-10-20T07:46:59.173Z,13.62
2017-10-20T07:47:58.789Z,13.63
2017-10-20T07:48:59.509Z,13.63
2017-10-20T07:49:59.101Z,13.63
2017-10-20T07:50:59.440Z,13.65
2017-10-20T07:51:58.199Z,13.63
2017-10-20T07:52:58.795Z,13.62
2017-10-20T07:53:58.873Z,13.63
2017-10-20T07:54:59.802Z,13.62
2017-10-20T07:55:59.220Z,13.62
2017-10-20T07:56:58.767Z,13.67
2017-10-20T07:57:59.269Z,13.67
2017-10-20T07:58:59.781Z,13.68
2017-10-20T07:59:59.843Z,13.68
2017-10-20T08:00:59.251Z,13.67
2017-10-20T08:01:58.719Z,13.68
2017-10-20T08:02:59.446Z,13.70
2017-10-20T08:03:59.179Z,13.70
2017-10-20T08:05:00.180Z,13.71
2017-10-20T08:05:58.674Z,13.74
2017-10-20T08:06:58.876Z,13.74
2017-10-20T08:07:59.152Z,13.74
2017-10-20T08:08:59.476Z,13.72
2017-10-20T08:09:58.936Z,13.75
2017-10-20T08:10:59.622Z,13.77
2017-10-20T08:11:58.552Z,13.79
2017-10-20T08:12:59.139Z,13.81
2017-10-20T08:13:58.757Z,13.85
2017-10-20T08:14:59.516Z,13.87
2017-10-20T08:15:58.771Z,13.90
2017-10-20T08:16:59.038Z,13.92
2017-10-20T08:17:59.050Z,13.96
2017-10-20T08:18:59.154Z,14.00
2017-10-20T08:19:58.716Z,14.04
2017-10-20T08:20:59.113Z,14.07
2017-10-20T08:21:59.800Z,14.07
2017-10-20T08:22:58.697Z,14.08
2017-10-20T08:23:59.058Z,14.10
2017-10-20T08:24:59.266Z,14.12
2017-10-20T08:25:58.788Z,14.15
2017-10-20T08:26:58.859Z,14.17
2017-10-20T08:27:59.528Z,14.20
2017-10-20T08:28:59.607Z,14.22
2017-10-20T08:29:59.177Z,14.26
2017-10-20T08:30:58.782Z,14.29
2017-10-20T08:31:59.234Z,14.29
2017-10-20T08:32:58.297Z,14.32
2017-10-20T08:33:58.934Z,14.37
2017-10-20T08:34:59.310Z,14.44
2017-10-20T08:35:58.756Z,14.45
2017-10-20T08:36:59.036Z,14.50
2017-10-20T08:37:59.139Z,14.55
2017-10-20T08:38:59.453Z,14.58
2017-10-20T08:39:59.068Z,14.62
2017-10-20T08:40:59.238Z,14.62
2017-10-20T08:41:59.421Z,14.62
2017-10-20T08:42:59.181Z,14.63
2017-10-20T08:43:58.357Z,14.65
2017-10-20T08:44:59.439Z,14.63
2017-10-20T08:45:58.813Z,14.65
2017-10-20T08:46:59.311Z,14.69
2017-10-20T08:47:58.527Z,14.77
2017-10-20T08:48:59.067Z,14.84
2017-10-20T08:49:59.358Z,14.89
2017-10-20T08:50:58.999Z,14.89
2017-10-20T08:51:59.252Z,14.88
2017-10-20T08:52:58.574Z,14.84
2017-10-20T08:53:59.061Z,14.85
2017-10-20T08:54:58.339Z,14.88
2017-10-20T08:55:59.261Z,14.92
2017-10-20T08:56:58.948Z,14.92
2017-10-20T08:57:59.507Z,15.00
2017-10-20T08:58:59.225Z,15.10
2017-10-20T08:59:59.327Z,15.19
2017-10-20T09:00:59.480Z,15.22
2017-10-20T09:01:59.148Z,15.17
2017-10-20T09:02:59.004Z,15.06
2017-10-20T09:03:59.075Z,15.02
2017-10-20T09:04:58.459Z,14.94
2017-10-20T09:05:58.827Z,14.92
2017-10-20T09:06:59.333Z,14.92
2017-10-20T09:07:58.722Z,14.88
2017-10-20T09:08:58.963Z,14.88
2017-10-20T09:09:58.869Z,14.88
2017-10-20T09:10:59.285Z,14.88
2017-10-20T09:11:58.770Z,14.88
2017-10-20T09:12:59.274Z,14.86
2017-10-20T09:13:58.788Z,14.85
2017-10-20T09:14:59.358Z,14.86
2017-10-20T09:15:59.074Z,14.88
2017-10-20T09:16:58.429Z,14.92
2017-10-20T09:17:58.874Z,15.00
2017-10-20T09:18:59.483Z,15.06
2017-10-20T09:19:59.145Z,15.04
2017-10-20T09:20:58.467Z,15.04
2017-10-20T09:21:58.784Z,15.00
2017-10-20T09:22:59.391Z,14.97
2017-10-20T09:23:58.994Z,14.86
2017-10-20T09:24:59.839Z,14.78
2017-10-20T09:25:59.145Z,14.70
2017-10-20T09:26:58.343Z,14.68
2017-10-20T09:27:58.718Z,14.66
2017-10-20T09:28:59.462Z,14.63
2017-10-20T09:29:58.934Z,14.59
2017-10-20T09:31:00.541Z,14.59
2017-10-20T09:31:59.202Z,14.58
2017-10-20T09:32:58.355Z,14.53
2017-10-20T09:33:59.186Z,14.53
2017-10-20T09:34:59.197Z,14.51
2017-10-20T09:36:00.123Z,14.50
2017-10-20T09:37:00.002Z,14.50
2017-10-20T09:37:59.690Z,14.50
2017-10-20T09:38:59.356Z,14.47
2017-10-20T09:39:59.086Z,14.44
2017-10-20T09:40:59.303Z,14.41
2017-10-20T09:41:58.333Z,14.41
2017-10-20T09:42:59.200Z,14.41
2017-10-20T09:43:58.276Z,14.40
2017-10-20T09:44:58.546Z,14.40
2017-10-20T09:45:59.196Z,14.35
2017-10-20T09:46:58.294Z,14.32
2017-10-20T09:47:59.091Z,14.29
2017-10-20T09:48:59.617Z,14.26
2017-10-20T09:49:58.997Z,14.22
2017-10-20T09:50:58.658Z,14.18
2017-10-20T09:51:58.756Z,14.15
2017-10-20T09:52:59.451Z,14.12
2017-10-20T09:53:59.153Z,14.12
2017-10-20T09:54:58.978Z,14.12
2017-10-20T09:55:58.432Z,14.12
2017-10-20T09:56:58.506Z,14.11
2017-10-20T09:57:59.089Z,14.15
2017-10-20T09:58:59.055Z,14.17
2017-10-20T09:59:59.609Z,14.18
2017-10-20T10:00:58.950Z,14.18
2017-10-20T10:01:58.391Z,14.20
2017-10-20T10:02:58.481Z,14.22
2017-10-20T10:03:59.420Z,14.18
2017-10-20T10:04:58.518Z,14.17
2017-10-20T10:05:59.057Z,14.17
2017-10-20T10:06:58.610Z,14.17
2017-10-20T10:07:58.588Z,14.15
2017-10-20T10:08:59.136Z,14.15
2017-10-20T10:09:58.843Z,14.17
2017-10-20T10:10:59.119Z,14.18
2017-10-20T10:11:58.505Z,14.22
2017-10-20T10:12:59.286Z,14.23
2017-10-20T10:13:58.525Z,14.28
2017-10-20T10:14:59.199Z,14.29
2017-10-20T10:15:58.917Z,14.29
2017-10-20T10:16:59.248Z,14.28
2017-10-20T10:17:58.828Z,14.29
2017-10-20T10:18:58.257Z,14.28
2017-10-20T10:19:59.032Z,14.25
2017-10-20T10:20:59.622Z,14.26
2017-10-20T10:21:58.783Z,14.28
2017-10-20T10:22:59.057Z,14.29
2017-10-20T10:23:58.709Z,14.32
2017-10-20T10:24:59.311Z,14.32
2017-10-20T10:25:58.915Z,14.35
2017-10-20T10:26:59.223Z,14.37
2017-10-20T10:27:59.448Z,14.40
2017-10-20T10:28:59.022Z,14.41
2017-10-20T10:29:59.251Z,14.44
2017-10-20T10:30:58.576Z,14.45
2017-10-20T10:31:58.814Z,14.44
2017-10-20T10:33:00.306Z,14.44
2017-10-20T10:33:58.844Z,14.44
2017-10-20T10:34:58.509Z,14.43
2017-10-20T10:35:58.640Z,14.40
2017-10-20T10:36:58.687Z,14.37
2017-10-20T10:37:59.004Z,14.36
2017-10-20T10:38:59.549Z,14.33
2017-10-20T10:39:58.798Z,14.33
2017-10-20T10:40:58.887Z,14.37
2017-10-20T10:41:59.355Z,14.44
2017-10-20T10:42:58.509Z,14.51
2017-10-20T10:43:58.979Z,14.59
2017-10-20T10:44:59.042Z,14.70
2017-10-20T10:45:58.242Z,14.78
2017-10-20T10:46:58.899Z,14.79
2017-10-20T10:47:59.255Z,14.82
2017-10-20T10:48:58.765Z,14.84
2017-10-20T10:49:59.790Z,14.82
2017-10-20T10:50:59.410Z,14.82
2017-10-20T10:51:58.449Z,14.85
2017-10-20T10:52:58.489Z,14.86
2017-10-20T10:53:58.859Z,14.82
2017-10-20T10:54:58.812Z,14.85
2017-10-20T10:55:59.244Z,14.88
2017-10-20T10:56:58.675Z,14.92
2017-10-20T10:57:58.840Z,15.04
2017-10-20T10:58:59.471Z,15.11
2017-10-20T10:59:58.719Z,15.14
2017-10-20T11:00:59.305Z,15.14
2017-10-20T11:01:58.392Z,15.10
2017-10-20T11:02:58.447Z,15.09
2017-10-20T11:03:58.472Z,15.10
2017-10-20T11:04:59.063Z,15.17
2017-10-20T11:05:58.721Z,15.22
2017-10-20T11:06:59.112Z,15.28
2017-10-20T11:07:58.939Z,15.33
2017-10-20T11:08:59.087Z,15.40
2017-10-20T11:09:58.797Z,15.42
2017-10-20T11:10:59.304Z,15.46
2017-10-20T11:11:59.229Z,15.54
2017-10-20T11:12:59.542Z,15.62
2017-10-20T11:13:59.032Z,15.72
2017-10-20T11:14:58.522Z,15.68
2017-10-20T11:16:00.270Z,15.72
2017-10-20T11:16:58.883Z,15.82
2017-10-20T11:17:59.744Z,16.93
2017-10-20T11:18:58.788Z,17.15
2017-10-20T11:19:58.996Z,17.60
2017-10-20T11:20:59.420Z,17.41
2017-10-20T11:21:58.596Z,17.42
2017-10-20T11:22:58.538Z,17.59
2017-10-20T11:23:59.390Z,18.15
2017-10-20T11:24:58.722Z,19.55
2017-10-20T11:25:59.353Z,19.79
2017-10-20T11:26:58.512Z,20.06
2017-10-20T11:27:58.722Z,20.00
2017-10-20T11:28:59.828Z,20.80
2017-10-20T11:29:58.877Z,20.95
2017-10-20T11:30:59.468Z,21.36
2017-10-20T11:31:58.608Z,20.59
2017-10-20T11:32:59.233Z,19.89
2017-10-20T11:33:58.492Z,19.39
2017-10-20T11:34:59.395Z,20.37
2017-10-20T11:35:58.960Z,20.41
2017-10-20T11:36:59.623Z,20.50
2017-10-20T11:37:59.134Z,21.77
2017-10-20T11:38:59.686Z,21.27
2017-10-20T11:39:59.325Z,20.48
2017-10-20T11:40:58.827Z,19.79
2017-10-20T11:41:59.525Z,20.88
2017-10-20T11:42:58.847Z,20.31
2017-10-20T11:43:59.159Z,20.32
2017-10-20T11:44:59.060Z,19.86
2017-10-20T11:45:59.051Z,18.93
2017-10-20T11:46:58.303Z,18.15
2017-10-20T11:47:58.243Z,17.72
2017-10-20T11:48:58.371Z,17.46
2017-10-20T11:49:58.587Z,17.30
2017-10-20T11:50:59.214Z,17.34
2017-10-20T11:51:58.821Z,17.23
2017-10-20T11:52:59.361Z,17.04
2017-10-20T11:53:58.657Z,17.08
2017-10-20T11:54:58.760Z,17.30
2017-10-20T11:55:59.078Z,17.26
2017-10-20T11:56:59.325Z,17.23
2017-10-20T11:57:58.301Z,17.38
2017-10-20T11:58:59.607Z,19.70
2017-10-20T11:59:59.023Z,20.36
2017-10-20T12:00:58.092Z,21.21
2017-10-20T12:01:59.127Z,20.56
2017-10-20T12:02:58.645Z,20.07
2017-10-20T12:03:58.875Z,19.21
2017-10-20T12:05:00.144Z,18.60
2017-10-20T12:05:58.346Z,18.53
2017-10-20T12:06:59.005Z,19.56
2017-10-20T12:07:58.545Z,19.04
2017-10-20T12:08:59.657Z,20.06
2017-10-20T12:09:58.701Z,20.85
2017-10-20T12:10:58.941Z,20.55
2017-10-20T12:11:59.012Z,19.81
2017-10-20T12:12:58.127Z,19.96
2017-10-20T12:13:58.729Z,20.09
2017-10-20T12:14:59.157Z,21.60
2017-10-20T12:15:58.714Z,21.09
2017-10-20T12:17:00.741Z,21.22
2017-10-20T12:17:59.369Z,20.32
2017-10-20T12:18:58.809Z,19.62
2017-10-20T12:19:59.286Z,19.69
2017-10-20T12:20:58.709Z,19.36
2017-10-20T12:21:59.068Z,19.99
2017-10-20T12:22:59.855Z,19.73
2017-10-20T12:23:59.181Z,19.45
2017-10-20T12:24:58.574Z,19.44
2017-10-20T12:25:59.112Z,19.27
2017-10-20T12:26:59.106Z,19.67
2017-10-20T12:27:58.388Z,20.84
2017-10-20T12:29:00.845Z,20.03
2017-10-20T12:29:58.948Z,21.75
2017-10-20T12:30:58.275Z,22.93
2017-10-20T12:31:58.851Z,23.09
2017-10-20T12:33:00.058Z,21.96
2017-10-20T12:33:59.098Z,22.38
2017-10-20T12:34:58.300Z,21.52
2017-10-20T12:35:58.604Z,21.06
2017-10-20T12:36:58.823Z,20.95
2017-10-20T12:38:00.696Z,22.04
2017-10-20T12:38:59.275Z,23.25
2017-10-20T12:39:58.469Z,23.76
2017-10-20T12:40:59.309Z,24.20
2017-10-20T12:41:58.801Z,24.93
2017-10-20T12:42:59.410Z,24.84
2017-10-20T12:43:58.326Z,23.76
2017-10-20T12:44:59.260Z,24.35
2017-10-20T12:45:58.352Z,24.89
2017-10-20T12:46:58.841Z,23.61
2017-10-20T12:48:00.434Z,23.23
2017-10-20T12:48:59.135Z,23.93
2017-10-20T12:49:58.454Z,23.92
2017-10-20T12:50:59.862Z,24.24
2017-10-20T12:51:59.516Z,24.51
2017-10-20T12:52:58.998Z,23.95